Time;durP1;ratioP1;P1;durP2;ratioP2;P2;SDS_P1;SDS_P2;PMS_P1;PMS_P2;Temp;Humidity;BMP_temperature;BMP_pressure;BME280_temperature;BME280_humidity;BME280_pressure;Samples;Min_cycle;Max_cycle;Signal;HPM_P1;HPM_P2
2022/06/28 00:00:36;;;;;;;6.20;5.00;;;16.60;99.90;;;;;;5015089;28;20037;-91
2022/06/28 00:03:02;;;;;;;6.60;5.10;;;16.60;99.90;;;;;;5121909;27;20053;-91
2022/06/28 00:05:27;;;;;;;7.60;5.65;;;16.60;99.90;;;;;;5047494;28;20017;-91
2022/06/28 00:07:56;;;;;;;6.82;5.68;;;16.60;99.90;;;;;;5035069;28;20200;-91
2022/06/28 00:10:22;;;;;;;7.53;5.65;;;16.60;99.90;;;;;;5036790;28;20017;-90
2022/06/28 00:12:48;;;;;;;7.43;5.60;;;16.60;99.90;;;;;;5043683;28;20112;-91
2022/06/28 00:18:01;;;;;;;6.20;5.53;;;16.60;99.90;;;;;;5051730;28;20085;-90
2022/06/28 00:20:27;;;;;;;7.28;5.45;;;16.50;99.90;;;;;;5049220;28;20025;-90
2022/06/28 00:22:56;;;;;;;6.43;5.68;;;16.50;99.90;;;;;;5034947;28;20025;-91
2022/06/28 00:25:21;;;;;;;6.30;5.70;;;16.50;99.90;;;;;;5052094;28;20492;-90
2022/06/28 00:27:50;;;;;;;7.95;6.50;;;16.50;99.90;;;;;;5092121;27;20023;-90
2022/06/28 00:30:18;;;;;;;7.80;5.80;;;16.50;99.90;;;;;;5131782;27;20053;-90
2022/06/28 00:32:49;;;;;;;9.93;6.25;;;16.40;99.90;;;;;;5052208;28;20032;-90
2022/06/28 00:35:15;;;;;;;9.57;6.88;;;16.40;99.90;;;;;;5034569;28;20021;-91
2022/06/28 00:37:44;;;;;;;9.45;6.97;;;16.40;99.90;;;;;;5034611;28;20032;-90
2022/06/28 00:40:12;;;;;;;10.25;7.38;;;16.40;99.90;;;;;;5017987;28;20400;-91
2022/06/28 00:42:39;;;;;;;11.57;7.97;;;16.40;99.90;;;;;;5155190;27;20015;-90
2022/06/28 00:45:06;;;;;;;13.45;8.05;;;16.30;99.90;;;;;;5097585;27;20056;-90
2022/06/28 00:47:43;;;;;;;;;;;;;;;;;;;;;
2022/06/28 00:50:11;;;;;;;25.40;9.98;;;16.30;99.90;;;;;;5039365;28;20024;-90
2022/06/28 00:53:00;;;;;;;18.60;8.80;;;16.30;99.90;;;;;;5034208;28;20033;-90
2022/06/28 00:55:26;;;;;;;19.45;9.30;;;16.30;99.90;;;;;;5052009;28;20074;-90
2022/06/28 00:57:54;;;;;;;15.43;8.55;;;16.30;99.90;;;;;;5034189;28;20025;-91
2022/06/28 01:00:23;;;;;;;18.38;7.57;;;16.20;99.90;;;;;;5113956;27;20082;-91
2022/06/28 01:02:49;;;;;;;15.80;7.68;;;16.20;99.90;;;;;;5027403;28;20021;-90
2022/06/28 01:05:15;;;;;;;13.52;8.13;;;16.20;99.90;;;;;;5125398;27;20029;-91
2022/06/28 01:07:43;;;;;;;12.27;8.45;;;16.20;99.90;;;;;;5051594;28;20377;-91
2022/06/28 01:10:10;;;;;;;13.15;7.88;;;16.20;99.90;;;;;;5155466;27;20011;-91
2022/06/28 01:12:35;;;;;;;13.68;7.72;;;16.10;99.90;;;;;;5048134;27;20040;-91
2022/06/28 01:15:01;;;;;;;10.55;7.72;;;16.20;99.90;;;;;;5137783;27;20452;-90
2022/06/28 01:17:27;;;;;;;14.68;8.70;;;16.10;99.90;;;;;;5137559;27;20032;-91
2022/06/28 01:19:53;;;;;;;14.82;8.38;;;16.10;99.90;;;;;;5138428;27;20028;-90
2022/06/28 01:22:20;;;;;;;15.52;8.50;;;16.10;99.90;;;;;;5138626;27;20021;-90
2022/06/28 01:24:46;;;;;;;12.30;8.32;;;16.10;99.90;;;;;;5037399;28;20025;-91
2022/06/28 01:27:16;;;;;;;15.60;8.80;;;16.10;99.90;;;;;;5074144;28;20024;-90
2022/06/28 01:29:48;;;;;;;11.43;8.40;;;16.10;99.90;;;;;;5123061;27;20025;-91
2022/06/28 01:32:14;;;;;;;13.98;8.98;;;16.10;99.90;;;;;;5066735;28;20035;-88
2022/06/28 01:34:45;;;;;;;10.48;7.72;;;16.00;99.90;;;;;;5043518;28;20041;-90
2022/06/28 01:37:11;;;;;;;20.05;9.10;;;16.00;99.90;;;;;;5128263;27;20013;-90
2022/06/28 01:39:37;;;;;;;26.08;10.60;;;16.00;99.90;;;;;;5069813;28;20038;-91
2022/06/28 01:42:03;;;;;;;19.15;9.85;;;16.00;99.90;;;;;;5054570;27;20021;-90
2022/06/28 01:44:30;;;;;;;20.48;10.05;;;15.90;99.90;;;;;;5003631;28;20022;-91
2022/06/28 01:47:00;;;;;;;20.38;9.15;;;15.90;99.90;;;;;;5088511;28;20019;-90
2022/06/28 01:49:25;;;;;;;14.77;8.18;;;15.90;99.90;;;;;;5056652;28;20037;-90
2022/06/28 01:51:54;;;;;;;11.63;6.60;;;15.90;99.90;;;;;;5111941;27;20034;-90
2022/06/28 01:54:20;;;;;;;11.00;6.22;;;15.90;99.90;;;;;;5016105;28;20025;-90
2022/06/28 01:56:50;;;;;;;10.85;5.60;;;15.90;99.90;;;;;;5052464;28;20023;-91
2022/06/28 01:59:19;;;;;;;6.82;5.15;;;15.80;99.90;;;;;;5010733;28;20021;-90
2022/06/28 02:01:45;;;;;;;10.30;5.40;;;15.80;99.90;;;;;;5037904;28;20030;-89
2022/06/28 02:04:31;;;;;;;6.72;5.70;;;15.80;99.90;;;;;;5034587;28;20036;-89
2022/06/28 02:06:58;;;;;;;8.32;5.88;;;15.80;99.90;;;;;;5039832;28;20078;-89
2022/06/28 02:09:24;;;;;;;9.55;6.25;;;15.70;99.90;;;;;;5037307;28;20010;-88
2022/06/28 02:11:53;;;;;;;6.93;6.03;;;15.70;99.90;;;;;;5081499;28;20033;-89
2022/06/28 02:14:22;;;;;;;7.45;6.50;;;15.70;99.90;;;;;;5043733;28;20042;-87
2022/06/28 02:16:53;;;;;;;7.25;6.00;;;15.60;99.90;;;;;;5074319;28;20066;-88
2022/06/28 02:19:21;;;;;;;6.90;5.60;;;15.60;99.90;;;;;;5052035;28;20010;-88
2022/06/28 02:21:47;;;;;;;6.00;4.78;;;15.60;99.90;;;;;;5091260;28;20024;-90
2022/06/28 02:24:18;;;;;;;5.60;5.05;;;15.60;99.90;;;;;;5036419;28;20049;-90
2022/06/28 02:26:44;;;;;;;7.10;4.60;;;15.60;99.90;;;;;;5036481;28;20017;-90
2022/06/28 02:29:10;;;;;;;8.77;4.45;;;15.60;99.90;;;;;;5036377;28;20014;-89
2022/06/28 02:31:38;;;;;;;5.80;5.15;;;15.50;99.90;;;;;;5034603;28;20026;-89
2022/06/28 02:34:07;;;;;;;7.35;4.95;;;15.50;99.90;;;;;;5089275;28;20031;-88
2022/06/28 02:41:44;;;;;;;6.65;5.13;;;15.40;99.90;;;;;;5030359;28;20030;-90
2022/06/28 02:44:10;;;;;;;12.00;5.75;;;15.40;99.90;;;;;;5100093;28;20469;-90
2022/06/28 02:46:36;;;;;;;6.47;5.88;;;15.40;99.90;;;;;;5020019;27;20051;-89
2022/06/28 02:49:02;;;;;;;9.43;5.68;;;15.40;99.90;;;;;;5087294;28;20027;-90
2022/06/28 02:51:28;;;;;;;8.23;6.53;;;15.30;99.90;;;;;;5017308;28;20018;-90
2022/06/28 02:53:56;;;;;;;6.80;6.10;;;15.30;99.90;;;;;;5103223;27;20026;-90
2022/06/28 02:56:44;;;;;;;9.50;6.00;;;15.30;99.90;;;;;;5077739;27;20030;-90
2022/06/28 02:59:10;;;;;;;7.97;6.22;;;15.30;99.90;;;;;;5024545;27;20026;-89
2022/06/28 03:01:44;;;;;;;7.03;5.70;;;15.30;99.90;;;;;;5135179;27;20047;-90
2022/06/28 03:04:12;;;;;;;6.00;5.40;;;15.30;99.90;;;;;;5041076;28;20030;-89
2022/06/28 03:06:48;;;;;;;6.22;4.68;;;15.30;99.90;;;;;;5015838;28;20028;-89
2022/06/28 03:09:14;;;;;;;7.00;3.92;;;15.30;99.90;;;;;;5015877;28;20424;-90
2022/06/28 03:11:43;;;;;;;6.32;4.15;;;15.20;99.90;;;;;;5121906;27;20431;-89
2022/06/28 03:14:13;;;;;;;6.07;5.28;;;15.20;99.90;;;;;;5063499;27;20058;-90
2022/06/28 03:16:39;;;;;;;7.55;5.68;;;15.30;99.90;;;;;;5128030;27;20066;-88
2022/06/28 03:19:07;;;;;;;6.55;5.50;;;15.20;99.90;;;;;;5039323;27;20148;-89
2022/06/28 03:21:35;;;;;;;8.00;6.00;;;15.20;99.90;;;;;;5100658;27;20114;-89
2022/06/28 03:24:01;;;;;;;12.07;7.10;;;15.20;99.90;;;;;;5047661;28;20021;-89
2022/06/28 03:26:27;;;;;;;7.85;6.03;;;15.20;99.90;;;;;;5052662;28;20517;-90
2022/06/28 03:28:55;;;;;;;7.38;6.50;;;15.20;99.90;;;;;;5136240;27;20027;-89
2022/06/28 03:31:23;;;;;;;7.93;5.40;;;15.20;99.90;;;;;;5062175;28;20029;-90
2022/06/28 03:33:52;;;;;;;5.78;4.20;;;15.10;99.90;;;;;;5096056;28;20029;-89
2022/06/28 03:36:20;;;;;;;5.35;3.85;;;15.10;99.90;;;;;;5022779;28;20018;-90
2022/06/28 03:38:48;;;;;;;4.97;3.40;;;15.10;99.90;;;;;;5115087;27;20170;-90
2022/06/28 03:41:22;;;;;;;5.38;4.18;;;15.10;99.90;;;;;;5092869;27;20038;-90
2022/06/28 03:44:01;;;;;;;6.53;4.50;;;15.10;99.90;;;;;;5100148;28;20021;-90
2022/06/28 03:46:30;;;;;;;6.65;4.53;;;15.00;99.90;;;;;;5120322;27;20027;-90
2022/06/28 03:48:58;;;;;;;5.82;4.47;;;15.10;99.90;;;;;;5086396;28;20042;-90
2022/06/28 03:51:27;;;;;;;6.68;5.45;;;15.10;99.90;;;;;;5098848;28;20090;-91
2022/06/28 03:53:55;;;;;;;6.50;5.90;;;15.00;99.90;;;;;;5110402;27;20114;-90
2022/06/28 03:56:23;;;;;;;7.50;6.80;;;15.00;99.90;;;;;;5087094;28;20022;-89
2022/06/28 03:58:51;;;;;;;7.07;6.38;;;15.00;99.90;;;;;;5100801;28;20026;-90
2022/06/28 04:01:26;;;;;;;9.05;5.80;;;15.00;99.90;;;;;;5118436;27;20023;-89
2022/06/28 04:03:59;;;;;;;4.45;3.50;;;15.00;99.90;;;;;;5111087;28;20029;-89
2022/06/28 04:06:27;;;;;;;6.28;4.10;;;15.00;99.90;;;;;;5021676;28;20022;-89
2022/06/28 04:09:00;;;;;;;7.18;4.38;;;15.00;99.90;;;;;;5084519;28;20037;-89
2022/06/28 04:11:28;;;;;;;7.28;5.78;;;14.90;99.90;;;;;;5098656;28;20017;-90
2022/06/28 04:13:56;;;;;;;7.10;6.03;;;14.90;99.90;;;;;;5086127;28;20112;-89
2022/06/28 04:16:30;;;;;;;6.95;6.03;;;14.90;99.90;;;;;;5101086;28;20021;-90
2022/06/28 04:18:55;;;;;;;8.95;7.03;;;14.90;99.90;;;;;;5103765;27;20022;-89
2022/06/28 04:21:22;;;;;;;8.60;7.55;;;14.90;99.90;;;;;;5101447;28;20014;-89
2022/06/28 04:23:50;;;;;;;8.48;6.88;;;14.90;99.90;;;;;;5103822;28;20159;-90
2022/06/28 04:26:16;;;;;;;8.20;7.40;;;14.90;99.90;;;;;;5083926;28;20029;-89
2022/06/28 04:28:42;;;;;;;10.40;7.35;;;14.90;99.90;;;;;;5025494;28;20373;-89
2022/06/28 04:31:15;;;;;;;12.63;8.00;;;14.90;99.90;;;;;;5099783;28;20116;-90
2022/06/28 04:33:43;;;;;;;9.48;8.25;;;14.90;99.90;;;;;;5032132;28;20461;-89
2022/06/28 04:36:12;;;;;;;12.27;7.97;;;14.90;99.90;;;;;;5117556;27;20050;-90
2022/06/28 04:38:39;;;;;;;9.20;7.70;;;14.90;99.90;;;;;;5090133;28;20053;-90
2022/06/28 04:41:07;;;;;;;10.95;7.75;;;14.90;99.90;;;;;;5095722;28;20017;-90
2022/06/28 04:43:42;;;;;;;12.48;7.50;;;14.90;99.90;;;;;;5100597;28;20026;-90
2022/06/28 04:46:11;;;;;;;10.65;6.40;;;14.90;99.90;;;;;;5105021;27;20031;-90
2022/06/28 04:48:46;;;;;;;10.88;6.90;;;15.00;99.90;;;;;;5135568;27;20096;-89
2022/06/28 04:51:12;;;;;;;11.38;7.05;;;15.00;99.90;;;;;;5100852;28;20598;-89
2022/06/28 04:53:49;;;;;;;10.70;6.70;;;15.00;99.90;;;;;;5120407;27;20061;-89
2022/06/28 04:56:22;;;;;;;8.77;7.00;;;15.00;99.90;;;;;;5116742;27;20027;-89
2022/06/28 04:58:48;;;;;;;10.10;6.53;;;15.00;99.90;;;;;;5117848;27;20106;-90
2022/06/28 05:01:19;;;;;;;8.20;6.35;;;15.00;99.90;;;;;;5101151;28;20110;-90
2022/06/28 05:03:45;;;;;;;11.65;6.63;;;15.00;99.90;;;;;;5101215;28;20052;-90
2022/06/28 05:06:11;;;;;;;8.18;6.30;;;15.00;99.90;;;;;;5099620;28;20430;-89
2022/06/28 05:08:36;;;;;;;11.80;7.00;;;15.10;99.90;;;;;;5041252;28;20084;-88
2022/06/28 05:11:02;;;;;;;9.50;6.65;;;15.10;99.90;;;;;;5123943;27;20006;-88
2022/06/28 05:13:31;;;;;;;9.60;6.20;;;15.10;99.90;;;;;;5106579;28;20010;-88
2022/06/28 05:15:56;;;;;;;9.80;6.30;;;15.10;99.90;;;;;;5131120;27;20025;-88
2022/06/28 05:18:22;;;;;;;10.00;6.50;;;15.20;99.90;;;;;;5125282;27;20042;-87
2022/06/28 05:20:53;;;;;;;8.95;6.28;;;15.20;99.90;;;;;;5107890;28;20033;-88
2022/06/28 05:23:19;;;;;;;12.15;6.88;;;15.20;99.90;;;;;;5110830;28;20022;-89
2022/06/28 05:25:52;;;;;;;9.52;5.70;;;15.20;99.90;;;;;;5103769;28;20025;-90
2022/06/28 05:28:18;;;;;;;7.95;5.75;;;15.20;99.90;;;;;;5094456;28;20075;-89
2022/06/28 05:30:44;;;;;;;10.25;5.65;;;15.20;99.90;;;;;;5105305;27;20022;-89
2022/06/28 05:33:09;;;;;;;9.73;5.65;;;15.30;99.90;;;;;;5091530;28;20032;-86
2022/06/28 05:35:41;;;;;;;13.25;6.47;;;15.30;99.90;;;;;;5101116;28;20537;-91
2022/06/28 05:38:07;;;;;;;14.73;6.72;;;15.30;99.90;;;;;;5100553;28;20028;-90
2022/06/28 05:40:33;;;;;;;8.75;5.97;;;15.30;99.90;;;;;;5085295;28;20374;-89
2022/06/28 05:43:01;;;;;;;10.30;6.20;;;15.30;99.90;;;;;;5098721;28;20029;-90
2022/06/28 05:45:29;;;;;;;8.98;6.20;;;15.30;99.90;;;;;;5109167;28;20027;-91
2022/06/28 05:48:23;;;;;;;9.63;5.40;;;15.40;99.90;;;;;;5098730;28;20038;-90
2022/06/28 05:50:57;;;;;;;10.50;5.07;;;15.40;99.90;;;;;;5098217;28;20029;-90
2022/06/28 05:53:25;;;;;;;10.15;5.00;;;15.40;99.90;;;;;;5098044;28;20410;-90
2022/06/28 05:55:53;;;;;;;9.93;5.40;;;15.40;99.90;;;;;;5098081;28;20029;-91
2022/06/28 05:58:26;;;;;;;11.65;5.57;;;15.40;99.90;;;;;;5022594;28;20021;-90
2022/06/28 06:00:54;;;;;;;14.40;6.05;;;15.50;99.90;;;;;;5115732;28;20469;-89
2022/06/28 06:03:19;;;;;;;12.85;4.82;;;15.50;99.90;;;;;;5090417;28;21589;-89
2022/06/28 06:05:45;;;;;;;11.60;4.88;;;15.50;99.90;;;;;;5094725;28;20034;-90
2022/06/28 06:08:11;;;;;;;12.85;5.10;;;15.60;99.90;;;;;;5113900;28;20018;-89
2022/06/28 06:10:37;;;;;;;8.15;4.82;;;15.60;99.90;;;;;;5102189;28;20026;-90
2022/06/28 06:13:15;;;;;;;;;;;;;;;;;;;;;
2022/06/28 06:15:48;;;;;;;12.40;5.13;;;15.70;99.90;;;;;;5103919;28;20026;-90
2022/06/28 06:18:14;;;;;;;9.05;5.40;;;15.70;99.90;;;;;;5102410;28;20109;-91
2022/06/28 06:20:40;;;;;;;10.73;4.93;;;15.80;99.90;;;;;;5098512;28;20508;-92
2022/06/28 06:23:10;;;;;;;11.35;4.90;;;15.80;99.90;;;;;;5097144;28;20056;-92
2022/06/28 06:25:36;;;;;;;8.10;4.75;;;15.90;99.90;;;;;;5114858;27;20036;-91
2022/06/28 06:28:01;;;;;;;9.98;4.93;;;15.90;99.90;;;;;;5100955;28;20018;-92
2022/06/28 06:30:32;;;;;;;11.50;5.47;;;16.00;99.90;;;;;;5033665;28;20025;-90
2022/06/28 06:32:58;;;;;;;13.45;5.00;;;16.00;99.90;;;;;;5109433;27;20110;-89
2022/06/28 06:35:27;;;;;;;12.05;5.72;;;16.10;99.90;;;;;;5102639;28;20125;-88
2022/06/28 06:37:53;;;;;;;11.65;4.97;;;16.20;99.90;;;;;;5118598;27;20023;-88
2022/06/28 06:40:19;;;;;;;12.52;5.60;;;16.20;99.90;;;;;;5094641;27;20509;-83
2022/06/28 06:42:46;;;;;;;12.23;6.18;;;16.30;99.90;;;;;;5137908;27;20408;-85
2022/06/28 06:45:12;;;;;;;13.20;5.70;;;16.30;99.90;;;;;;5063534;27;20040;-85
2022/06/28 06:47:37;;;;;;;14.25;5.40;;;16.40;99.90;;;;;;5054910;27;20451;-85
2022/06/28 06:50:08;;;;;;;12.20;5.22;;;16.40;99.90;;;;;;5037595;27;20017;-84
2022/06/28 06:52:35;;;;;;;11.30;5.30;;;16.50;99.90;;;;;;5104591;27;20187;-83
2022/06/28 06:55:01;;;;;;;14.20;5.45;;;16.60;99.90;;;;;;5035995;28;20036;-83
2022/06/28 06:57:26;;;;;;;13.25;5.88;;;16.60;99.90;;;;;;5022241;28;20054;-84
2022/06/28 06:59:55;;;;;;;15.75;5.28;;;16.70;99.90;;;;;;5132740;27;20025;-84
2022/06/28 07:02:21;;;;;;;21.45;5.57;;;16.80;99.90;;;;;;5086568;27;20015;-85
2022/06/28 07:04:47;;;;;;;12.23;4.93;;;16.90;99.90;;;;;;5042502;28;20473;-84
2022/06/28 07:07:13;;;;;;;12.20;6.25;;;16.90;99.90;;;;;;5060784;27;20021;-86
2022/06/28 07:09:38;;;;;;;13.93;5.28;;;17.00;99.90;;;;;;5034686;27;20032;-85
2022/06/28 07:12:05;;;;;;;13.07;5.25;;;17.10;99.90;;;;;;5138750;27;20052;-87
2022/06/28 07:14:30;;;;;;;17.67;5.70;;;17.20;99.90;;;;;;5032783;28;20021;-84
2022/06/28 07:16:56;;;;;;;13.75;5.68;;;17.20;99.90;;;;;;5112068;27;20029;-83
2022/06/28 07:19:22;;;;;;;13.43;4.97;;;17.30;99.90;;;;;;5113234;27;20018;-84
2022/06/28 07:21:47;;;;;;;15.73;5.90;;;17.40;99.90;;;;;;5088077;27;20029;-83
2022/06/28 07:24:13;;;;;;;14.77;5.90;;;17.40;99.90;;;;;;5095586;27;20482;-84
2022/06/28 07:26:39;;;;;;;15.10;5.10;;;17.50;99.90;;;;;;5040026;27;20454;-85
2022/06/28 07:29:05;;;;;;;17.40;6.15;;;17.60;99.90;;;;;;5069469;27;20062;-86
2022/06/28 07:31:31;;;;;;;11.57;4.50;;;17.60;99.90;;;;;;5045996;28;20017;-87
2022/06/28 07:33:58;;;;;;;13.55;4.90;;;17.80;99.90;;;;;;5103314;28;20376;-84
2022/06/28 07:36:24;;;;;;;14.10;4.50;;;17.80;99.90;;;;;;5033089;28;20089;-84
2022/06/28 07:38:49;;;;;;;16.02;4.57;;;17.90;99.90;;;;;;5051015;28;20037;-84
2022/06/28 07:41:15;;;;;;;14.27;5.07;;;17.90;99.90;;;;;;5137528;27;20468;-84
2022/06/28 07:43:41;;;;;;;15.32;4.30;;;18.00;99.90;;;;;;5119972;27;20041;-84
2022/06/28 07:46:09;;;;;;;14.73;4.10;;;18.10;99.90;;;;;;5137591;27;20049;-84
2022/06/28 07:48:34;;;;;;;14.43;4.47;;;18.20;99.90;;;;;;5120109;27;20068;-86
2022/06/28 07:53:44;;;;;;;14.52;3.67;;;18.40;99.90;;;;;;5051203;28;20044;-86
2022/06/28 07:56:10;;;;;;;10.82;2.97;;;18.40;99.90;;;;;;5103094;28;20021;-84
2022/06/28 07:58:39;;;;;;;11.95;2.88;;;18.50;99.90;;;;;;5031844;28;20469;-84
2022/06/28 08:01:06;;;;;;;15.82;4.22;;;18.60;99.90;;;;;;5119265;27;20063;-84
2022/06/28 08:03:32;;;;;;;15.07;3.85;;;18.70;99.90;;;;;;5032274;28;20021;-85
2022/06/28 08:05:58;;;;;;;15.30;3.53;;;18.80;99.90;;;;;;5134602;27;20086;-84
2022/06/28 08:08:23;;;;;;;7.93;2.60;;;18.90;99.90;;;;;;5127646;27;20065;-85
2022/06/28 08:10:49;;;;;;;7.13;2.40;;;18.90;99.90;;;;;;5050802;28;20025;-85
2022/06/28 08:13:16;;;;;;;10.43;3.15;;;19.00;99.90;;;;;;5124866;27;20112;-85
2022/06/28 08:15:42;;;;;;;11.93;3.20;;;19.10;99.90;;;;;;5131258;27;20040;-84
2022/06/28 08:18:08;;;;;;;11.32;2.58;;;19.20;99.90;;;;;;5033021;28;20029;-85
2022/06/28 08:20:34;;;;;;;9.73;2.60;;;19.20;99.90;;;;;;5047554;28;20032;-85
2022/06/28 08:22:59;;;;;;;9.65;2.35;;;19.30;99.90;;;;;;5134178;27;20029;-84
2022/06/28 08:25:25;;;;;;;7.65;2.13;;;19.40;99.90;;;;;;5117225;27;20096;-84
2022/06/28 08:27:51;;;;;;;8.05;2.33;;;19.50;99.90;;;;;;5050798;27;20449;-84
2022/06/28 08:30:16;;;;;;;11.15;2.65;;;19.50;99.90;;;;;;5101824;27;20023;-82
2022/06/28 08:32:42;;;;;;;9.43;2.45;;;19.60;99.90;;;;;;5035929;28;20028;-85
2022/06/28 08:35:08;;;;;;;9.95;2.40;;;19.60;99.90;;;;;;5046487;28;20033;-84
2022/06/28 08:37:34;;;;;;;13.50;2.67;;;19.70;99.90;;;;;;5133412;27;20453;-91
2022/06/28 08:39:59;;;;;;;10.48;2.90;;;19.80;99.90;;;;;;5130615;27;20056;-82
2022/06/28 08:42:27;;;;;;;10.68;2.58;;;19.90;99.90;;;;;;5014691;28;20119;-84
2022/06/28 08:44:58;;;;;;;10.52;2.58;;;20.00;99.90;;;;;;5049451;28;20082;-88
2022/06/28 08:47:25;;;;;;;12.85;2.80;;;20.00;99.90;;;;;;5037693;28;20039;-91
2022/06/28 08:49:56;;;;;;;8.80;2.17;;;20.10;99.90;;;;;;5048329;28;20028;-88
2022/06/28 08:52:23;;;;;;;7.82;2.00;;;20.20;99.90;;;;;;5036634;28;20099;-87
2022/06/28 08:54:50;;;;;;;5.32;1.73;;;20.20;99.90;;;;;;5047633;28;20025;-84
2022/06/28 08:57:19;;;;;;;6.32;1.98;;;20.30;99.90;;;;;;5051431;28;20029;-85
2022/06/28 08:59:46;;;;;;;6.80;1.95;;;20.30;99.90;;;;;;5051374;28;20047;-85
2022/06/28 09:02:14;;;;;;;15.15;3.13;;;20.30;99.90;;;;;;5043734;28;20025;-85
2022/06/28 09:04:44;;;;;;;7.75;1.85;;;20.30;99.90;;;;;;5040462;28;20056;-84
2022/06/28 09:07:10;;;;;;;4.47;1.30;;;20.40;99.90;;;;;;5044282;28;20029;-85
2022/06/28 09:09:36;;;;;;;7.07;1.90;;;20.40;99.90;;;;;;5124140;27;20029;-88
2022/06/28 09:12:03;;;;;;;4.65;1.98;;;20.40;99.90;;;;;;5116920;27;20029;-87
2022/06/28 09:14:33;;;;;;;6.00;2.00;;;20.50;99.90;;;;;;5111547;27;20081;-86
2022/06/28 09:17:18;;;;;;;6.15;1.40;;;20.50;99.90;;;;;;5030772;28;20484;-85
2022/06/28 09:19:43;;;;;;;5.55;1.48;;;20.60;99.90;;;;;;5026545;28;20013;-85
2022/06/28 09:22:26;;;;;;;4.97;1.52;;;20.60;99.90;;;;;;5042776;28;20082;-86
2022/06/28 09:24:52;;;;;;;5.43;1.70;;;20.70;99.90;;;;;;5027876;27;20444;-85
2022/06/28 09:27:31;;;;;;;5.53;1.70;;;20.80;99.90;;;;;;5049991;27;20050;-85
2022/06/28 09:29:57;;;;;;;4.68;1.48;;;20.80;99.90;;;;;;5031087;27;20104;-86
2022/06/28 09:32:35;;;;;;;8.70;1.88;;;20.80;99.90;;;;;;5019059;28;20021;-84
2022/06/28 09:35:03;;;;;;;7.72;1.83;;;20.90;99.90;;;;;;5118388;27;20502;-87
2022/06/28 09:37:48;;;;;;;5.50;1.33;;;20.90;99.90;;;;;;5031640;28;20027;-83
2022/06/28 09:40:20;;;;;;;7.38;1.75;;;21.00;99.90;;;;;;5031602;27;20056;-83
2022/06/28 09:43:03;;;;;;;4.68;1.30;;;21.10;99.50;;;;;;5031859;28;20456;-83
2022/06/28 09:45:29;;;;;;;4.30;1.17;;;21.10;99.60;;;;;;5049662;27;20527;-83
2022/06/28 09:47:55;;;;;;;5.43;1.35;;;21.20;99.20;;;;;;5040959;27;20093;-82
2022/06/28 09:50:23;;;;;;;3.22;1.00;;;21.20;98.90;;;;;;5130020;27;20025;-86
2022/06/28 09:52:50;;;;;;;5.78;1.33;;;21.30;98.90;;;;;;5134154;27;20025;-85
2022/06/28 09:55:17;;;;;;;3.80;1.10;;;21.30;98.50;;;;;;5135960;27;20125;-83
2022/06/28 09:57:45;;;;;;;4.82;1.15;;;21.30;98.60;;;;;;5116749;28;20044;-84
2022/06/28 10:00:12;;;;;;;4.50;1.30;;;21.40;98.70;;;;;;5031440;28;20054;-83
2022/06/28 10:02:41;;;;;;;2.42;1.13;;;21.50;98.80;;;;;;5049028;27;20021;-84
2022/06/28 10:05:07;;;;;;;6.07;1.58;;;21.60;98.30;;;;;;5049505;27;20064;-84
2022/06/28 10:07:34;;;;;;;4.63;1.20;;;21.60;98.20;;;;;;5099925;27;20493;-83
2022/06/28 10:10:01;;;;;;;5.30;1.10;;;21.60;98.30;;;;;;5102156;27;20015;-84
2022/06/28 10:15:18;;;;;;;7.28;1.88;;;21.70;97.60;;;;;;5110774;27;20049;-84
2022/06/28 10:17:45;;;;;;;;;;;21.80;97.70;;;;;;5121258;27;20015;-83
2022/06/28 10:20:15;;;;;;;5.07;1.42;;;21.80;99.40;;;;;;5120781;27;19910;-83
2022/06/28 10:22:41;;;;;;;2.73;1.40;;;21.90;97.80;;;;;;5044449;28;20461;-83
2022/06/28 10:25:22;;;;;;;4.13;1.73;;;21.90;97.40;;;;;;5135006;27;20078;-84
2022/06/28 10:27:51;;;;;;;5.35;1.50;;;22.00;98.20;;;;;;5049559;27;20036;-84
2022/06/28 10:30:18;;;;;;;6.63;1.23;;;22.00;97.00;;;;;;5049198;27;20441;-84
2022/06/28 10:32:52;;;;;;;3.70;1.25;;;22.10;96.90;;;;;;5048984;27;20350;-84
2022/06/28 10:35:32;;;;;;;3.25;1.10;;;22.10;96.90;;;;;;5031674;28;20074;-82
2022/06/28 10:38:13;;;;;;;3.40;1.00;;;22.20;97.10;;;;;;5049266;27;20028;-90
2022/06/28 10:40:41;;;;;;;3.72;1.05;;;22.30;97.90;;;;;;5109311;28;20135;-91
2022/06/28 10:43:10;;;;;;;6.38;1.45;;;22.30;96.20;;;;;;5112683;28;20028;-90
2022/06/28 10:46:02;;;;;;;2.70;1.25;;;22.30;95.10;;;;;;5137838;27;20039;-88
2022/06/28 10:48:30;;;;;;;2.50;0.95;;;22.40;96.80;;;;;;5116131;28;20019;-93
2022/06/28 10:51:04;;;;;;;5.32;1.42;;;22.40;94.80;;;;;;5115982;28;20023;-91
2022/06/28 10:53:51;;;;;;;4.68;1.60;;;22.40;95.50;;;;;;5113582;28;20034;-92
2022/06/28 10:56:17;;;;;;;4.03;1.02;;;22.40;94.30;;;;;;5111981;28;20089;-92
2022/06/28 10:58:59;;;;;;;5.10;1.27;;;22.50;94.60;;;;;;5128645;28;20102;-90
2022/06/28 11:02:06;;;;;;;5.65;1.13;;;22.50;95.80;;;;;;5132738;28;20015;-91
2022/06/28 11:04:32;;;;;;;6.15;1.20;;;22.60;95.40;;;;;;5109362;27;20092;-91
2022/06/28 11:07:07;;;;;;;6.05;1.10;;;22.60;93.20;;;;;;5136479;27;20015;-92
2022/06/28 11:09:49;;;;;;;4.68;1.25;;;22.70;92.30;;;;;;5137623;27;20026;-91
2022/06/28 11:12:35;;;;;;;6.80;1.23;;;22.70;93.20;;;;;;5119397;27;20085;-88
2022/06/28 11:18:28;;;;;;;3.58;0.95;;;22.80;93.30;;;;;;5121410;27;20028;-93
2022/06/28 11:20:56;;;;;;;3.20;1.02;;;22.90;92.50;;;;;;5129992;27;20031;-93
2022/06/28 11:23:53;;;;;;;;;;;;;;;;;;;;;
2022/06/28 11:29:15;;;;;;;4.18;1.40;;;23.10;92.80;;;;;;5128665;27;20030;-91
2022/06/28 11:31:46;;;;;;;4.47;1.20;;;23.20;92.80;;;;;;5124865;27;20026;-90
2022/06/28 11:34:31;;;;;;;;;;;;;;;;;;;;;
2022/06/28 11:36:57;;;;;;;4.82;1.33;;;23.30;93.20;;;;;;5123026;27;20033;-84
2022/06/28 11:39:24;;;;;;;4.45;1.20;;;23.40;93.30;;;;;;5109738;27;20130;-84
2022/06/28 11:41:54;;;;;;;5.13;1.17;;;23.40;93.10;;;;;;5115743;27;20063;-84
2022/06/28 11:44:21;;;;;;;3.17;1.00;;;23.50;93.00;;;;;;5124068;27;20038;-84
2022/06/28 11:46:49;;;;;;;4.40;1.35;;;23.60;93.10;;;;;;5112744;27;20029;-89
2022/06/28 11:49:26;;;;;;;2.90;1.25;;;23.70;92.40;;;;;;5121501;27;20027;-88
2022/06/28 11:51:51;;;;;;;4.90;1.15;;;23.70;92.40;;;;;;5111413;27;20031;-88
2022/06/28 11:54:20;;;;;;;4.00;1.25;;;23.80;91.60;;;;;;5113640;27;20168;-89
2022/06/28 11:56:47;;;;;;;3.90;1.20;;;23.80;91.70;;;;;;5092184;27;20030;-86
2022/06/28 11:59:15;;;;;;;3.58;0.98;;;23.90;91.90;;;;;;5109841;27;20475;-87
2022/06/28 12:01:42;;;;;;;6.38;1.30;;;23.90;91.30;;;;;;5112260;27;20023;-87
2022/06/28 12:04:09;;;;;;;2.88;1.13;;;23.90;91.50;;;;;;5113957;27;20028;-87
2022/06/28 12:06:39;;;;;;;4.32;1.27;;;24.00;91.00;;;;;;5134796;27;20019;-88
2022/06/28 12:09:09;;;;;;;3.67;1.55;;;24.00;91.20;;;;;;5113194;27;20467;-88
2022/06/28 12:11:40;;;;;;;3.25;1.00;;;24.00;91.50;;;;;;5121439;27;20015;-88
2022/06/28 12:14:13;;;;;;;;;;;24.00;91.70;;;;;;5106612;27;20035;-88
2022/06/28 12:16:44;;;;;;;4.22;1.38;;;24.00;94.80;;;;;;5130851;27;19903;-88
2022/06/28 12:19:18;;;;;;;9.50;1.48;;;24.00;91.20;;;;;;5135756;27;20016;-93
2022/06/28 12:22:04;;;;;;;3.78;1.00;;;24.10;91.30;;;;;;5117723;27;20039;-92
2022/06/28 12:24:54;;;;;;;4.38;1.38;;;24.10;93.20;;;;;;5103377;27;20528;-94
2022/06/28 12:27:21;;;;;;;;;;;24.10;91.60;;;;;;5118469;27;20027;-93
2022/06/28 12:29:51;;;;;;;4.03;1.17;;;24.20;95.70;;;;;;5136102;27;19912;-93
2022/06/28 12:32:22;;;;;;;4.88;1.13;;;24.20;92.30;;;;;;5148942;27;20142;-92
2022/06/28 12:34:55;;;;;;;4.55;1.20;;;24.20;91.70;;;;;;5119457;27;20023;-90
2022/06/28 12:37:25;;;;;;;5.22;1.50;;;24.20;90.40;;;;;;5122640;27;20026;-93
2022/06/28 12:39:56;;;;;;;3.65;1.85;;;24.20;88.90;;;;;;5134373;27;20035;-91
2022/06/28 12:42:22;;;;;;;5.97;1.70;;;24.20;88.20;;;;;;5153928;27;20015;-92
2022/06/28 12:45:00;;;;;;;;;;;;;;;;;;;;;
2022/06/28 12:47:35;;;;;;;4.70;1.30;;;24.20;90.20;;;;;;5134574;27;20043;-91
2022/06/28 12:50:08;;;;;;;4.80;1.13;;;24.20;90.90;;;;;;5119954;27;20023;-91
2022/06/28 12:52:43;;;;;;;7.30;1.67;;;24.20;89.40;;;;;;5128222;27;20048;-91
2022/06/28 12:55:31;;;;;;;3.72;1.27;;;24.20;90.10;;;;;;5122472;27;20035;-91
2022/06/28 12:58:08;;;;;;;3.70;1.20;;;24.20;91.90;;;;;;5112815;27;20034;-91
2022/06/28 13:00:39;;;;;;;5.95;1.10;;;24.20;91.10;;;;;;5123032;27;20042;-92
2022/06/28 13:03:05;;;;;;;4.00;1.30;;;24.30;88.80;;;;;;5099755;27;20126;-81
2022/06/28 13:05:31;;;;;;;4.07;1.33;;;24.30;88.40;;;;;;5115841;27;20042;-80
2022/06/28 13:07:56;;;;;;;4.85;1.40;;;24.40;88.10;;;;;;5134544;27;20027;-81
2022/06/28 13:10:22;;;;;;;4.18;1.45;;;24.50;87.80;;;;;;5099289;27;20020;-81
2022/06/28 13:12:49;;;;;;;3.17;1.48;;;24.50;86.80;;;;;;5099190;27;20027;-81
2022/06/28 13:15:15;;;;;;;3.13;1.13;;;24.60;88.30;;;;;;5116307;27;20109;-81
2022/06/28 13:17:41;;;;;;;4.90;0.98;;;24.60;88.70;;;;;;5134143;27;20511;-81
2022/06/28 13:20:08;;;;;;;5.45;1.63;;;24.70;88.90;;;;;;5098827;27;20031;-80